Flugplatz Schleswig Airport

Bericht für ETNS

vom 29.09. um 13:07 UTC

Wind 5 kt aus 310°

Sichtweite 9000 m

gering bewölkt in 400 ft

aufgebrochene Bewölkung in 800 ft

aufgebrochene Bewölkung in 1700 ft

Temperatur 12.0°C

Taupunkt 11.0°C

Luftfeuchtigkeit 94%

Luftdruck 1000 hPa

ETNS 291307Z 31005KT 9000 FEW004 BKN008 BKN017 12/11 Q1000 GRN BLU TEMPO GRN

Prognose für ETNS

vom 29.09. um 13:25 UTC

Zwischen 14:00 UTC und 21:00 UTC

Wind 8 kt aus 270°

Sichtweite 10 km oder mehr

keine signifikanten Wettererscheinungen

aufgelockert bewölkt in 1000 ft

aufgebrochene Bewölkung in 2500 ft


Zwischen 14:00 UTC und 19:00 UTC zeitweise

Wind 10 kt aus 310° in Böen 20 kt

Sichtweite 4000 m

Regenschauer

aufgebrochene Bewölkung in 700 ft

aufgebrochene Bewölkung in 1500 ft


Zwischen 19:00 UTC und 21:00 UTC zeitweise

Wind 5 kt aus 250°

Sichtweite 3000 m

feuchter Dunst

aufgebrochene Bewölkung in 1200 ft


Zwischen 21:00 und 23:00 UTC übergehend zu

Wind 3 kt aus 230°

Sichtweite 400 m

Nebel

TAF ETNS 291325Z 2914/2923 27008KT 9999 NSW SCT010 BKN025 TEMPO 2914/2919 31010G20KT 4000 SHRA BKN007 BKN015TCU TEMPO 2919/2921 25005KT 3000 BR BKN012 BECMG 2921/2923 23003KT 0400 FG VV001 BY ETGL
Impressum